METAR Data
IDs: Format: Raw Decoded Include TAF

Data at: 1904 UTC 07 Dec 2021

K4S1 071855Z AUTO 7SM CLR 12/10 A3007 RMK AO2
K4S1 071835Z AUTO 5SM BR SCT017 11/09 A3009 RMK AO2
K4S1 071815Z AUTO 03006KT 7SM BKN019 11/08 A3010 RMK AO2
K4S1 071755Z AUTO 04005KT 7SM CLR 11/08 A3010 RMK AO2
K4S1 071735Z AUTO 4SM HZ CLR 11/08 A3008 RMK AO2
K4S1 071715Z AUTO 05007KT 5SM BR CLR 10/08 A3007 RMK AO2
K4S1 071655Z AUTO 04006KT 7SM CLR 10/07 A3006 RMK AO2
K4S1 071635Z AUTO 05005KT 5SM BR CLR 09/07 A3005 RMK AO2
K4S1 071615Z AUTO 05005KT 5SM BR CLR 08/07 A3004 RMK AO2
K4S1 071555Z AUTO 5SM BR CLR 08/07 A3003 RMK AO2
K4S1 071535Z AUTO 05009KT 7SM CLR 08/07 A3001 RMK AO2
K4S1 071515Z AUTO 7SM CLR 08/07 A3000 RMK AO2
K4S1 071455Z AUTO 07004KT 7SM CLR 08/07 A2999 RMK AO2
K4S1 071435Z AUTO 05007KT 7SM CLR 08/07 A3001 RMK AO2
K4S1 071415Z AUTO 05006KT 10SM CLR 08/07 A3001 RMK AO2
K4S1 071355Z AUTO 00000KT 7SM CLR 08/07 A3001 RMK AO2
K4S1 071335Z AUTO 05007KT 7SM CLR 08/07 A3001 RMK AO2
K4S1 071315Z AUTO 05007KT 7SM CLR 08/07 A3001 RMK AO2
K4S1 071255Z AUTO 04008KT 7SM CLR 08/07 A3000 RMK AO2
K4S1 071235Z AUTO 06005KT 7SM CLR 08/07 A3001 RMK AO2
K4S1 071215Z AUTO 00000KT 7SM CLR 08/07 A3000 RMK AO2
K4S1 071155Z AUTO 06005KT 7SM CLR 08/07 A3001 RMK AO2
K4S1 071135Z AUTO 07006KT 7SM CLR 08/07 A3000 RMK AO2
K4S1 071115Z AUTO 05008KT 7SM CLR 08/07 A3001 RMK AO2
K4S1 071055Z AUTO 06006KT 7SM CLR 08/07 A3001 RMK AO2
K4S1 071035Z AUTO 08006KT 7SM CLR 08/07 A3001 RMK AO2
K4S1 071015Z AUTO 05011KT 7SM CLR 08/07 A3000 RMK AO2
K4S1 070955Z AUTO 05009KT 7SM CLR 08/07 A2999 RMK AO2
K4S1 070935Z AUTO 06007KT 7SM CLR 09/08 A2999 RMK AO2
K4S1 070915Z AUTO 08004KT 7SM CLR 09/08 A2999 RMK AO2
K4S1 070855Z AUTO 06004KT 7SM CLR 09/08 A2999 RMK AO2
K4S1 070835Z AUTO 06004KT 7SM CLR 09/08 A2999 RMK AO2
K4S1 070815Z AUTO 04004KT 7SM CLR 10/08 A2999 RMK AO2
K4S1 070755Z AUTO 05004KT 7SM CLR 10/08 A2999 RMK AO2
K4S1 070735Z AUTO 05005KT 7SM CLR 10/08 A3000 RMK AO2
K4S1 070715Z AUTO 04006KT 7SM SCT044 10/08 A3000 RMK AO2
K4S1 070655Z AUTO 08004KT 7SM SCT042 10/09 A3000 RMK AO2
K4S1 070635Z AUTO 07003KT 7SM CLR 10/09 A2999 RMK AO2
K4S1 070615Z AUTO 04005KT 7SM CLR 10/08 A2999 RMK AO2
K4S1 070555Z AUTO 05008KT 7SM CLR 10/08 A2999 RMK AO2
K4S1 070535Z AUTO 00000KT 7SM SCT025 BKN031 10/09 A2999 RMK AO2
K4S1 070515Z AUTO 06004KT 7SM BKN027 OVC033 10/09 A2999 RMK AO2
K4S1 070455Z AUTO 04004KT 7SM BKN029 OVC033 10/08 A2999 RMK AO2
K4S1 070435Z AUTO 01003KT 5SM BR BKN031 10/08 A3000 RMK AO2
K4S1 070415Z AUTO 22005KT 5SM BR SCT031 SCT041 10/08 A3000 RMK AO2
K4S1 070355Z AUTO 00000KT 5SM BR CLR 10/09 A3000 RMK AO2
K4S1 070335Z AUTO 12005KT 7SM CLR 10/09 A2999 RMK AO2
K4S1 070315Z AUTO 02011KT 10SM -DZ CLR 11/09 A2997 RMK AO2
K4S1 070255Z AUTO 32006KT 10SM -RA SCT037 SCT043 11/08 A2994 RMK AO2 P0005
K4S1 070235Z AUTO 08005G19KT 10SM RA SCT036 BKN045 10/08 A2993 RMK AO2 P0004
K4S1 070215Z AUTO 17013G21KT 10SM -RA SCT040 SCT049 10/07 A2999 RMK AO2 P0001
K4S1 070155Z AUTO 18006KT 7SM -RA SCT033 OVC040 08/07 A3003 RMK AO2 P0010
K4S1 070135Z AUTO 20007KT 7SM RA OVC033 08/07 A3005 RMK AO2 P0008
K4S1 070115Z AUTO 19008KT 4SM RA BKN037 09/08 A3005 RMK AO2 P0005
K4S1 070055Z AUTO 00000KT 5SM RA SCT029 BKN039 10/08 A3004 RMK AO2 P0009
K4S1 070035Z AUTO 00000KT 5SM -RA OVC039 10/08 A3005 RMK AO2 P0006
K4S1 070015Z AUTO 19005KT 4SM -RA OVC037 10/08 A3005 RMK AO2 P0004
K4S1 062355Z AUTO 19006KT 5SM -RA OVC037 10/08 A3005 RMK AO2 P0001
K4S1 062335Z AUTO 18007KT 10SM RA BKN035 OVC041 10/08 A3005 RMK AO2
K4S1 062315Z AUTO 19010KT 3SM BR BKN036 BKN044 OVC050 11/08 A3005 RMK AO2
K4S1 062255Z AUTO 20008KT 4SM BR SCT040 BKN046 BKN050 11/08 A3005 RMK AO2
K4S1 062235Z AUTO 05003KT 5SM HZ OVC040 12/07 A3006 RMK AO2
K4S1 062215Z AUTO 13010KT 090V150 7SM BKN038 BKN046 12/06 A3006 RMK AO2
K4S1 062155Z AUTO 14007KT 7SM BKN037 BKN044 12/06 A3007 RMK AO2
K4S1 062135Z AUTO 17008KT 4SM HZ BKN030 OVC039 11/08 A3008 RMK AO2
K4S1 062115Z AUTO 19008G14KT 4SM HZ OVC030 11/08 A3009 RMK AO2
K4S1 062055Z AUTO 19008KT 4SM BR OVC028 11/08 A3010 RMK AO2
K4S1 062035Z AUTO 00000KT 5SM HZ OVC028 10/07 A3011 RMK AO2
K4S1 062015Z AUTO 05004KT 5SM HZ BKN030 10/07 A3010 RMK AO2
K4S1 061955Z AUTO 07005KT 7SM BKN032 10/08 A3012 RMK AO2
K4S1 061935Z AUTO 18004KT 7SM -RA CLR 10/08 A3013 RMK AO2
K4S1 061915Z AUTO 00000KT 10SM DZ SCT035 09/07 A3015 RMK AO2
K4S1 061855Z AUTO 05003KT 10SM -RA OVC035 09/07 A3016 RMK AO2
K4S1 061835Z AUTO 05006KT 10SM -RA OVC035 09/07 A3016 RMK AO2
K4S1 061815Z AUTO 05007KT 7SM OVC041 09/07 A3017 RMK AO2
K4S1 061755Z AUTO 05003KT 5SM BR OVC043 09/07 A3019 RMK AO2
K4S1 061735Z AUTO 05006KT 5SM BR OVC050 09/07 A3019 RMK AO2
K4S1 061715Z AUTO 05006KT 5SM BR OVC055 09/07 A3020 RMK AO2
K4S1 061655Z AUTO 04005KT 10SM -RA SCT048 BKN060 09/07 A3020 RMK AO2
K4S1 061635Z AUTO 05004KT 10SM DZ SCT048 BKN060 09/07 A3021 RMK AO2
K4S1 061615Z AUTO 04006KT 5SM BR SCT060 09/07 A3021 RMK AO2
K4S1 061555Z AUTO 03003KT 7SM CLR 09/07 A3019 RMK AO2
K4S1 061535Z AUTO 7SM CLR 09/07 A3019 RMK AO2
K4S1 061515Z AUTO 00000KT 10SM CLR 09/07 A3019 RMK AO2
K4S1 061455Z AUTO 13004KT 5SM BR CLR 08/07 A3020 RMK AO2
K4S1 061435Z AUTO 00000KT 5SM BR SCT080 08/06 A3019 RMK AO2
K4S1 061415Z AUTO 00000KT 7SM SCT080 08/06 A3017 RMK AO2
K4S1 061355Z AUTO 07003KT 7SM CLR 08/06 A3018 RMK AO2
K4S1 061335Z AUTO 11003KT 7SM CLR 08/06 A3017 RMK AO2
K4S1 061315Z AUTO 06005KT 7SM CLR 08/06 A3019 RMK AO2
K4S1 061255Z AUTO 18003KT 7SM CLR 08/06 A3019 RMK AO2
K4S1 061235Z AUTO 05011KT 7SM CLR 08/06 A3020 RMK AO2
K4S1 061215Z AUTO 00000KT 5SM BR CLR 08/06 A3025 RMK AO2
K4S1 061155Z AUTO 04003KT 7SM CLR 08/06 A3025 RMK AO2
K4S1 061135Z AUTO 03005KT 7SM CLR 08/06 A3025 RMK AO2
K4S1 061115Z AUTO 04006KT 7SM CLR 08/06 A3027 RMK AO2
K4S1 061055Z AUTO 00000KT 7SM CLR 08/06 A3029 RMK AO2
K4S1 061035Z AUTO 06003KT 7SM CLR 08/06 A3029 RMK AO2
K4S1 061015Z AUTO 04005KT 7SM CLR 08/06 A3027 RMK AO2
K4S1 060955Z AUTO 04006KT 7SM CLR 08/06 A3026 RMK AO2
K4S1 060935Z AUTO 00000KT 7SM CLR 08/06 A3025 RMK AO2
K4S1 060915Z AUTO 02007KT 7SM CLR 08/06 A3025 RMK AO2
K4S1 060855Z AUTO 07003KT 7SM CLR 08/06 A3027 RMK AO2
K4S1 060835Z AUTO 00000KT 4SM BR CLR 08/07 A3027 RMK AO2
K4S1 060815Z AUTO 13005KT 7SM CLR 08/06 A3027 RMK AO2
K4S1 060755Z AUTO 03003KT 7SM CLR 08/07 A3029 RMK AO2
K4S1 060735Z AUTO 00000KT 5SM BR CLR 08/06 A3031 RMK AO2
K4S1 060715Z AUTO 00000KT 7SM CLR 08/06 A3031 RMK AO2